METAR Data
IDs: Format: Raw Decoded Include TAF

Data at: 2149 UTC 02 Aug 2021

ETNS 022120Z AUTO 25006KT 7000 // ////// 13/11 Q1012 ///